Blythe, California
Current Conditions -  °F | °C
As of 1:52 AM on Monday 22 Dec 2014 (Local Time) from KBLH Reporting Station
Clear Clear  
Wind Chill: 50°   Ceiling: Unl
Heat Index: 50°   Visibility: 10mi
Dew Point: 47°   Wind: 0mph
Humidity: 89%   Direction: NA
Pressure: 30.03"   Gusts: NA
Location:  33.61°N, 114.59°W
Report Text: KBLH 220952Z AUTO 00000KT 10SM CLR 10/08 A3003 RMK AO2 SLP168 T01000083
Loading
Personal Weather Stations






























Interactive Weather Map New forecast layout! Learn more

10-Day Weather Forecast

Advertisements
Track Severe Weather on mobile